Map

Track Data

SID SEASON NUMBER BASIN SUBBASIN NAME ISO_TIME NATURE LAT LON WMO_WIND WMO_PRES WMO_AGENCY TRACK_TYPE DIST2LAND LANDFALL IFLAG USA_AGENCY USA_ATCF_ID USA_LAT USA_LON USA_RECORD USA_STATUS USA_WIND USA_PRES USA_SSHS USA_R34_NE USA_R34_SE USA_R34_SW USA_R34_NW USA_R50_NE USA_R50_SE USA_R50_SW USA_R50_NW USA_R64_NE USA_R64_SE USA_R64_SW USA_R64_NW USA_POCI USA_ROCI USA_RMW USA_EYE TOKYO_LAT TOKYO_LON TOKYO_GRADE TOKYO_WIND TOKYO_PRES TOKYO_R50_DIR TOKYO_R50_LONG TOKYO_R50_SHORT TOKYO_R30_DIR TOKYO_R30_LONG TOKYO_R30_SHORT TOKYO_LAND CMA_LAT CMA_LON CMA_CAT CMA_WIND CMA_PRES HKO_LAT HKO_LON HKO_CAT HKO_WIND HKO_PRES NEWDELHI_LAT NEWDELHI_LON NEWDELHI_GRADE NEWDELHI_WIND NEWDELHI_PRES NEWDELHI_CI NEWDELHI_DP NEWDELHI_POCI REUNION_LAT REUNION_LON REUNION_TYPE REUNION_WIND REUNION_PRES REUNION_TNUM REUNION_CI REUNION_RMW REUNION_R34_NE REUNION_R34_SE REUNION_R34_SW REUNION_R34_NW REUNION_R50_NE REUNION_R50_SE REUNION_R50_SW REUNION_R50_NW REUNION_R64_NE REUNION_R64_SE REUNION_R64_SW REUNION_R64_NW BOM_LAT BOM_LON BOM_TYPE BOM_WIND BOM_PRES BOM_TNUM BOM_CI BOM_RMW BOM_R34_NE BOM_R34_SE BOM_R34_SW BOM_R34_NW BOM_R50_NE BOM_R50_SE BOM_R50_SW BOM_R50_NW BOM_R64_NE BOM_R64_SE BOM_R64_SW BOM_R64_NW BOM_ROCI BOM_POCI BOM_EYE BOM_POS_METHOD BOM_PRES_METHOD NADI_LAT NADI_LON NADI_CAT NADI_WIND NADI_PRES WELLINGTON_LAT WELLINGTON_LON WELLINGTON_WIND WELLINGTON_PRES DS824_LAT DS824_LON DS824_STAGE DS824_WIND DS824_PRES TD9636_LAT TD9636_LON TD9636_STAGE TD9636_WIND TD9636_PRES TD9635_LAT TD9635_LON TD9635_WIND TD9635_PRES TD9635_ROCI NEUMANN_LAT NEUMANN_LON NEUMANN_CLASS NEUMANN_WIND NEUMANN_PRES MLC_LAT MLC_LON MLC_CLASS MLC_WIND MLC_PRES USA_GUST BOM_GUST BOM_GUST_PER REUNION_GUST REUNION_GUST_PER USA_SEAHGT USA_SEARAD_NE USA_SEARAD_SE USA_SEARAD_SW USA_SEARAD_NW STORM_SPEED STORM_DIR
1957247N21163 1957 52 WP MM DELLA 1957-09-04 00:00:00 TS 20.8000 162.600 spur-merge 2685 2685 _________O_O__ -1 20.8000 162.600 TC 85 20.8000 162.600 85 992 120 16 58
1957247N21163 1957 52 WP MM DELLA 1957-09-04 03:00:00 TS 21.2156 163.302 spur-merge 2709 2709 _________P_P__ -1 21.2156 163.302 TC 85 21.2156 163.302 85 990 150 16 55
1957247N21163 1957 52 WP MM DELLA 1957-09-04 06:00:00 TS 21.7000 164.000 spur-merge 2727 2727 _________O_O__ -1 21.7000 164.000 TC 85 21.7000 164.000 85 988 180 17 50
1957247N21163 1957 52 WP MM DELLA 1957-09-04 09:00:00 TS 22.2921 164.693 spur-merge 2741 2741 _________P_P__ -1 22.2921 164.693 TC 85 22.2921 164.693 85 986 180 18 47
1957247N21163 1957 52 WP MM DELLA 1957-09-04 12:00:00 TS 22.9000 165.400 spur-merge 2757 2757 _________O_O__ -1 22.9000 165.400 TC 85 22.9000 165.400 85 984 180 18 50
1957247N21163 1957 52 WP MM DELLA 1957-09-04 15:00:00 TS 23.4526 166.172 spur-merge 2784 2784 _________P_P__ -1 23.4526 166.172 TC 85 23.4526 166.172 85 982 150 17 54
1957247N21163 1957 52 WP MM DELLA 1957-09-04 18:00:00 TS 23.9000 166.900 spur-merge 2817 2817 _________O_O__ -1 23.9000 166.900 TC 85 23.9000 166.900 85 980 120 14 58
1957247N21163 1957 52 WP MM DELLA 1957-09-04 21:00:00 TS 24.2021 167.496 spur-merge 2849 2849 _________P_P__ -1 24.2021 167.496 TC 87 24.2021 167.496 87 977 120 11 64
1957247N21163 1957 52 WP MM DELLA 1957-09-05 00:00:00 TS 24.4000 168.000 spur-merge 2874 2869 _________O_O__ -1 24.4000 168.000 TC 90 24.4000 168.000 90 975 120 10 67
1957247N21163 1957 52 WP MM DELLA 1957-09-05 03:00:00 TS 24.5722 168.465 spur-merge 2880 2880 _________P_P__ -1 24.5722 168.465 TC 90 24.5722 168.465 90 974 150 9 70
1957247N21163 1957 52 WP MM DELLA 1957-09-05 06:00:00 TS 24.7000 168.900 spur-merge 2891 2891 _________O_O__ -1 24.7000 168.900 TC 90 24.7000 168.900 90 973 180 8 73
1957247N21163 1957 52 WP MM DELLA 1957-09-05 09:00:00 TS 24.8149 169.358 spur-merge 2909 2905 _________P_P__ -1 24.8149 169.358 TC 90 24.8149 169.358 90 972 180 8 76
1957247N21163 1957 52 WP MM DELLA 1957-09-05 12:00:00 TS 24.9000 169.800 spur-merge 2921 2921 _________O_O__ -1 24.9000 169.800 TC 90 24.9000 169.800 90 972 180 8 79
1957247N21163 1957 52 WP MM DELLA 1957-09-05 15:00:00 TS 24.9573 170.200 spur-merge 2932 2932 _________P_P__ -1 24.9573 170.200 TC 90 24.9573 170.200 90 972 210 7 82
1957247N21163 1957 52 WP MM DELLA 1957-09-05 18:00:00 TS 25.0000 170.600 spur-merge 2954 2954 _________O_O__ -1 25.0000 170.600 TC 90 25.0000 170.600 90 972 240 8 84
1957247N21163 1957 52 WP MM DELLA 1957-09-05 21:00:00 TS 25.0425 171.050 spur-merge 2979 2938 _________P_P__ -1 25.0425 171.050 TC 82 25.0425 171.050 82 972 240 8 83
1957247N21163 1957 52 WP MM DELLA 1957-09-06 00:00:00 TS 25.1000 171.500 spur-merge 2938 2898 _________O_O__ -1 25.1000 171.500 TC 75 25.1000 171.500 75 972 240 8 79
1957247N21163 1957 52 WP MM DELLA 1957-09-06 03:00:00 TS 25.1924 171.915 spur-merge 2898 2858 _________P_P__ -1 25.1924 171.915 TC 75 25.1924 171.915 75 973 240 8 75
1957247N21163 1957 52 WP MM DELLA 1957-09-06 06:00:00 TS 25.3000 172.300 spur-merge 2858 2829 _________O_O__ -1 25.3000 172.300 TC 75 25.3000 172.300 75 974 240 7 72
1957247N21163 1957 52 WP MM DELLA 1957-09-06 09:00:00 TS 25.4074 172.665 spur-merge 2819 2789 _________P_P__ -1 25.4074 172.665 TC 75 25.4074 172.665 75 975 240 7 72
1957247N21163 1957 52 WP MM DELLA 1957-09-06 12:00:00 TS 25.5000 173.000 spur-merge 2789 2759 _________O_O__ -1 25.5000 173.000 TC 75 25.5000 173.000 75 976 240 6 74
1957247N21163 1957 52 WP MM DELLA 1957-09-06 15:00:00 TS 25.5724 173.307 spur-merge 2759 2729 _________P_P__ -1 25.5724 173.307 TC 75 25.5724 173.307 75 975 240 6 80
1957247N21163 1957 52 WP MM DELLA 1957-09-06 18:00:00 TS 25.6000 173.600 spur-merge 2729 2699 _________O_O__ -1 25.6000 173.600 TC 75 25.6000 173.600 75 975 240 5 90
1957247N21163 1957 52 WP MM DELLA 1957-09-06 21:00:00 TS 25.5725 173.915 spur-merge 2699 2669 _________P_P__ -1 25.5725 173.915 TC 82 25.5725 173.915 82 974 240 6 100
1957247N21163 1957 52 WP MM DELLA 1957-09-07 00:00:00 TS 25.5000 174.200 spur-merge 2669 2648 _________O_O__ -1 25.5000 174.200 TC 90 25.5000 174.200 90 973 240 5 110
1957247N21163 1957 52 WP MM DELLA 1957-09-07 03:00:00 TS 25.4074 174.423 spur-merge 2648 2628 _________P_P__ -1 25.4074 174.423 TC 90 25.4074 174.423 90 974 210 4 119
1957247N21163 1957 52 WP MM DELLA 1957-09-07 06:00:00 TS 25.3000 174.600 spur-merge 2628 2607 _________O_O__ -1 25.3000 174.600 TC 90 25.3000 174.600 90 975 180 4 123
1957247N21163 1957 52 WP MM DELLA 1957-09-07 09:00:00 TS 25.2075 174.765 spur-merge 2607 2596 _________P_P__ -1 25.2075 174.765 TC 90 25.2075 174.765 90 976 180 3 126
1957247N21163 1957 52 WP MM DELLA 1957-09-07 12:00:00 TS 25.1000 174.900 spur-merge 2596 2586 _________O_O__ -1 25.1000 174.900 TC 90 25.1000 174.900 90 977 180 3 137
1957247N21163 1957 52 WP MM DELLA 1957-09-07 15:00:00 TS 24.9874 174.992 spur-merge 2586 2575 _________P_P__ -1 24.9874 174.992 TC 90 24.9874 174.992 90 977 180 4 149
1957247N21163 1957 52 WP MM DELLA 1957-09-07 18:00:00 TS 24.8000 175.100 spur-merge 2575 2554 _________O_O__ -1 24.8000 175.100 TC 90 24.8000 175.100 90 978 180 6 152
1957247N21163 1957 52 WP MM DELLA 1957-09-07 21:00:00 TS 24.5025 175.277 spur-merge 2554 2533 _________P_P__ -1 24.5025 175.277 TC 87 24.5025 175.277 87 977 210 8 152
1957247N21163 1957 52 WP MM DELLA 1957-09-08 00:00:00 TS 24.1000 175.500 spur-merge 2533 2513 _________O_O__ -1 24.1000 175.500 TC 85 24.1000 175.500 85 976 240 10 155
1957247N21163 1957 52 WP MM DELLA 1957-09-08 03:00:00 TS 23.6000 175.735 spur-merge 2513 2484 _________P_P__ -1 23.6000 175.735 TC 85 23.6000 175.735 85 974 240 11 155
1957247N21163 1957 52 WP MM DELLA 1957-09-08 06:00:00 TS 23.1000 176.000 spur-merge 2484 2455 _________O_O__ -1 23.1000 176.000 TC 85 23.1000 176.000 85 972 240 10 150
1957247N21163 1957 52 WP MM DELLA 1957-09-08 09:00:00 TS 22.7274 176.285 spur-merge 2455 2426 _________P_P__ -1 22.7274 176.285 TC 85 22.7274 176.285 85 974 210 9 142
1957247N21163 1957 52 WP MM DELLA 1957-09-08 12:00:00 TS 22.4000 176.600 spur-merge 2426 2398 _________O_O__ -1 22.4000 176.600 TC 85 22.4000 176.600 85 977 180 9 140
1957247N21163 1957 52 WP MM DELLA 1957-09-08 15:00:00 TS 22.0348 176.920 spur-merge 2399 2360 _________P_P__ -1 22.0348 176.920 TC 85 22.0348 176.920 85 975 210 10 137
1957247N21163 1957 52 WP MM DELLA 1957-09-08 18:00:00 TS 21.7000 177.300 spur-merge 2360 2312 _________O_O__ -1 21.7000 177.300 TC 85 21.7000 177.300 85 974 240 10 126
1957247N21163 1957 52 WP MM DELLA 1957-09-08 21:00:00 TS 21.4352 177.800 spur-merge 2312 2263 _________P_P__ -1 21.4304 177.773 TC 85 21.4304 177.773 85 970 270 11 118
1957247N21163 1957 52 WP MM DELLA 1957-09-09 00:00:00 TS 21.2000 178.300 spur-merge 2263 2235 _________O_O__ -1 21.2000 178.300 TC 85 21.2000 178.300 85 967 300 9 121
1957247N21163 1957 52 WP MM DELLA 1957-09-09 03:00:00 TS 20.9647 178.657 spur-merge 2224 ______________ -1 TC 8 125

Digital Typhoon Data and Search

About IBTrACS Database

This database is a web-friendly format of International Best Track Archive for Climate Stewardship (IBTrACS), a global best track data archive curated by NOAA dating back to 1842.

Updated: 2021-11-26